sensor_id;sensor_type;location;lat;lon;timestamp;P1;durP1;ratioP1;P2;durP2;ratioP2
24483;SDS011;12643;51.620;7.548;2022-08-19T00:00:53;7.18;;;6.47;;
24483;SDS011;12643;51.620;7.548;2022-08-19T00:03:21;6.45;;;5.88;;
24483;SDS011;12643;51.620;7.548;2022-08-19T00:05:54;7.18;;;6.28;;
24483;SDS011;12643;51.620;7.548;2022-08-19T00:08:22;6.10;;;5.60;;
24483;SDS011;12643;51.620;7.548;2022-08-19T00:10:57;7.50;;;6.35;;
24483;SDS011;12643;51.620;7.548;2022-08-19T00:13:26;6.93;;;6.30;;
24483;SDS011;12643;51.620;7.548;2022-08-19T00:15:55;7.43;;;6.28;;
24483;SDS011;12643;51.620;7.548;2022-08-19T00:18:26;6.75;;;6.10;;
24483;SDS011;12643;51.620;7.548;2022-08-19T00:20:54;6.85;;;6.25;;
24483;SDS011;12643;51.620;7.548;2022-08-19T00:23:21;6.47;;;5.88;;
24483;SDS011;12643;51.620;7.548;2022-08-19T00:25:49;6.97;;;6.30;;
24483;SDS011;12643;51.620;7.548;2022-08-19T00:28:18;7.05;;;6.35;;
24483;SDS011;12643;51.620;7.548;2022-08-19T00:30:46;6.75;;;6.15;;
24483;SDS011;12643;51.620;7.548;2022-08-19T00:33:15;7.43;;;6.70;;
24483;SDS011;12643;51.620;7.548;2022-08-19T00:35:43;7.47;;;6.55;;
24483;SDS011;12643;51.620;7.548;2022-08-19T00:38:10;7.57;;;6.78;;
24483;SDS011;12643;51.620;7.548;2022-08-19T00:40:38;7.63;;;6.93;;
24483;SDS011;12643;51.620;7.548;2022-08-19T00:43:09;6.67;;;6.07;;
24483;SDS011;12643;51.620;7.548;2022-08-19T00:45:39;7.85;;;6.97;;
24483;SDS011;12643;51.620;7.548;2022-08-19T00:48:09;8.07;;;7.20;;
24483;SDS011;12643;51.620;7.548;2022-08-19T00:50:40;7.03;;;6.20;;
24483;SDS011;12643;51.620;7.548;2022-08-19T00:53:09;7.82;;;6.25;;
24483;SDS011;12643;51.620;7.548;2022-08-19T00:55:40;7.20;;;6.40;;
24483;SDS011;12643;51.620;7.548;2022-08-19T00:58:12;7.13;;;6.43;;
24483;SDS011;12643;51.620;7.548;2022-08-19T01:00:43;7.22;;;6.53;;
24483;SDS011;12643;51.620;7.548;2022-08-19T01:03:12;6.93;;;6.32;;
24483;SDS011;12643;51.620;7.548;2022-08-19T01:05:43;6.97;;;6.07;;
24483;SDS011;12643;51.620;7.548;2022-08-19T01:08:12;6.97;;;6.28;;
24483;SDS011;12643;51.620;7.548;2022-08-19T01:10:43;7.40;;;6.53;;
24483;SDS011;12643;51.620;7.548;2022-08-19T01:13:13;8.48;;;5.95;;
24483;SDS011;12643;51.620;7.548;2022-08-19T01:15:43;6.88;;;6.32;;
24483;SDS011;12643;51.620;7.548;2022-08-19T01:18:14;6.90;;;6.20;;
24483;SDS011;12643;51.620;7.548;2022-08-19T01:27:39;6.57;;;5.88;;
24483;SDS011;12643;51.620;7.548;2022-08-19T01:30:09;6.75;;;6.15;;
24483;SDS011;12643;51.620;7.548;2022-08-19T01:32:38;8.05;;;6.72;;
24483;SDS011;12643;51.620;7.548;2022-08-19T01:35:07;7.40;;;6.70;;
24483;SDS011;12643;51.620;7.548;2022-08-19T01:37:42;7.18;;;6.45;;
24483;SDS011;12643;51.620;7.548;2022-08-19T01:40:12;7.25;;;6.65;;
24483;SDS011;12643;51.620;7.548;2022-08-19T01:42:41;9.40;;;8.50;;
24483;SDS011;12643;51.620;7.548;2022-08-19T01:45:09;8.85;;;8.00;;
24483;SDS011;12643;51.620;7.548;2022-08-19T01:47:51;8.93;;;8.02;;
24483;SDS011;12643;51.620;7.548;2022-08-19T01:50:20;8.10;;;7.30;;
24483;SDS011;12643;51.620;7.548;2022-08-19T01:52:48;8.10;;;7.40;;
24483;SDS011;12643;51.620;7.548;2022-08-19T01:55:16;13.15;;;8.50;;
24483;SDS011;12643;51.620;7.548;2022-08-19T01:57:47;8.57;;;7.75;;
24483;SDS011;12643;51.620;7.548;2022-08-19T02:00:18;9.10;;;8.30;;
24483;SDS011;12643;51.620;7.548;2022-08-19T02:02:47;8.65;;;6.80;;
24483;SDS011;12643;51.620;7.548;2022-08-19T02:05:15;6.63;;;6.03;;
24483;SDS011;12643;51.620;7.548;2022-08-19T02:07:46;7.53;;;6.82;;
24483;SDS011;12643;51.620;7.548;2022-08-19T02:10:16;6.85;;;6.25;;
24483;SDS011;12643;51.620;7.548;2022-08-19T02:12:48;7.05;;;6.45;;
24483;SDS011;12643;51.620;7.548;2022-08-19T02:15:16;6.38;;;5.88;;
24483;SDS011;12643;51.620;7.548;2022-08-19T02:17:45;8.10;;;7.30;;
24483;SDS011;12643;51.620;7.548;2022-08-19T02:20:13;6.78;;;6.18;;
24483;SDS011;12643;51.620;7.548;2022-08-19T02:22:42;7.22;;;6.53;;
24483;SDS011;12643;51.620;7.548;2022-08-19T02:25:11;7.45;;;6.75;;
24483;SDS011;12643;51.620;7.548;2022-08-19T02:27:41;7.10;;;5.90;;
24483;SDS011;12643;51.620;7.548;2022-08-19T02:30:13;6.25;;;5.75;;
24483;SDS011;12643;51.620;7.548;2022-08-19T02:32:44;7.32;;;6.57;;
24483;SDS011;12643;51.620;7.548;2022-08-19T02:35:27;7.82;;;6.38;;
24483;SDS011;12643;51.620;7.548;2022-08-19T02:37:55;7.90;;;6.88;;
24483;SDS011;12643;51.620;7.548;2022-08-19T02:40:53;7.43;;;6.82;;
24483;SDS011;12643;51.620;7.548;2022-08-19T02:43:24;7.07;;;6.38;;
24483;SDS011;12643;51.620;7.548;2022-08-19T02:45:56;5.78;;;5.28;;
24483;SDS011;12643;51.620;7.548;2022-08-19T02:48:26;9.18;;;6.45;;
24483;SDS011;12643;51.620;7.548;2022-08-19T02:50:55;7.93;;;7.22;;
24483;SDS011;12643;51.620;7.548;2022-08-19T02:53:27;8.18;;;7.47;;
24483;SDS011;12643;51.620;7.548;2022-08-19T02:55:56;8.20;;;7.47;;
24483;SDS011;12643;51.620;7.548;2022-08-19T02:58:27;7.82;;;7.13;;
24483;SDS011;12643;51.620;7.548;2022-08-19T03:00:58;7.55;;;6.63;;
24483;SDS011;12643;51.620;7.548;2022-08-19T03:03:27;8.80;;;7.90;;
24483;SDS011;12643;51.620;7.548;2022-08-19T03:06:05;7.75;;;7.00;;
24483;SDS011;12643;51.620;7.548;2022-08-19T03:08:36;8.70;;;7.90;;
24483;SDS011;12643;51.620;7.548;2022-08-19T03:11:10;7.68;;;6.97;;
24483;SDS011;12643;51.620;7.548;2022-08-19T03:13:43;7.70;;;6.97;;
24483;SDS011;12643;51.620;7.548;2022-08-19T03:18:50;7.93;;;7.15;;
24483;SDS011;12643;51.620;7.548;2022-08-19T03:21:20;7.60;;;6.95;;
24483;SDS011;12643;51.620;7.548;2022-08-19T03:26:23;8.10;;;7.35;;
24483;SDS011;12643;51.620;7.548;2022-08-19T03:28:52;7.32;;;6.72;;
24483;SDS011;12643;51.620;7.548;2022-08-19T03:31:28;7.90;;;7.20;;
24483;SDS011;12643;51.620;7.548;2022-08-19T03:33:56;10.77;;;8.05;;
24483;SDS011;12643;51.620;7.548;2022-08-19T03:36:26;9.35;;;8.43;;
24483;SDS011;12643;51.620;7.548;2022-08-19T03:38:56;9.07;;;8.18;;
24483;SDS011;12643;51.620;7.548;2022-08-19T03:41:27;11.43;;;7.55;;
24483;SDS011;12643;51.620;7.548;2022-08-19T03:43:59;8.23;;;7.53;;
24483;SDS011;12643;51.620;7.548;2022-08-19T03:49:00;8.25;;;7.45;;
24483;SDS011;12643;51.620;7.548;2022-08-19T03:51:33;10.60;;;9.15;;
24483;SDS011;12643;51.620;7.548;2022-08-19T03:54:06;8.75;;;7.88;;
24483;SDS011;12643;51.620;7.548;2022-08-19T03:56:37;10.07;;;9.13;;
24483;SDS011;12643;51.620;7.548;2022-08-19T03:59:07;11.23;;;9.73;;
24483;SDS011;12643;51.620;7.548;2022-08-19T04:01:53;9.70;;;8.55;;
24483;SDS011;12643;51.620;7.548;2022-08-19T04:04:23;9.80;;;8.85;;
24483;SDS011;12643;51.620;7.548;2022-08-19T04:06:53;11.63;;;8.73;;
24483;SDS011;12643;51.620;7.548;2022-08-19T04:09:22;9.63;;;8.73;;
24483;SDS011;12643;51.620;7.548;2022-08-19T04:11:55;12.18;;;9.07;;
24483;SDS011;12643;51.620;7.548;2022-08-19T04:14:26;9.85;;;8.90;;
24483;SDS011;12643;51.620;7.548;2022-08-19T04:17:03;8.45;;;7.65;;
24483;SDS011;12643;51.620;7.548;2022-08-19T04:19:32;10.15;;;8.68;;
24483;SDS011;12643;51.620;7.548;2022-08-19T04:22:03;9.48;;;8.35;;
24483;SDS011;12643;51.620;7.548;2022-08-19T04:24:32;9.32;;;8.45;;
24483;SDS011;12643;51.620;7.548;2022-08-19T04:27:02;9.40;;;7.38;;
24483;SDS011;12643;51.620;7.548;2022-08-19T04:29:31;9.35;;;8.45;;
24483;SDS011;12643;51.620;7.548;2022-08-19T04:32:01;8.65;;;7.75;;
24483;SDS011;12643;51.620;7.548;2022-08-19T04:36:58;8.20;;;7.40;;
24483;SDS011;12643;51.620;7.548;2022-08-19T04:39:27;10.50;;;8.55;;
24483;SDS011;12643;51.620;7.548;2022-08-19T04:42:10;7.57;;;6.93;;
24483;SDS011;12643;51.620;7.548;2022-08-19T04:44:55;9.48;;;8.57;;
24483;SDS011;12643;51.620;7.548;2022-08-19T04:47:25;8.60;;;7.15;;
24483;SDS011;12643;51.620;7.548;2022-08-19T04:49:53;8.35;;;7.55;;
24483;SDS011;12643;51.620;7.548;2022-08-19T04:52:21;9.15;;;8.23;;
24483;SDS011;12643;51.620;7.548;2022-08-19T04:54:49;9.43;;;8.50;;
24483;SDS011;12643;51.620;7.548;2022-08-19T04:57:16;10.95;;;8.75;;
24483;SDS011;12643;51.620;7.548;2022-08-19T04:59:44;9.52;;;8.60;;
24483;SDS011;12643;51.620;7.548;2022-08-19T05:02:12;9.57;;;8.55;;
24483;SDS011;12643;51.620;7.548;2022-08-19T05:04:41;8.90;;;8.05;;
24483;SDS011;12643;51.620;7.548;2022-08-19T05:07:09;11.60;;;9.95;;
24483;SDS011;12643;51.620;7.548;2022-08-19T05:09:37;9.43;;;8.52;;
24483;SDS011;12643;51.620;7.548;2022-08-19T05:12:05;11.18;;;10.07;;
24483;SDS011;12643;51.620;7.548;2022-08-19T05:14:52;10.07;;;9.07;;
24483;SDS011;12643;51.620;7.548;2022-08-19T05:17:20;11.10;;;10.00;;
24483;SDS011;12643;51.620;7.548;2022-08-19T05:19:49;13.13;;;11.60;;
24483;SDS011;12643;51.620;7.548;2022-08-19T05:22:34;15.55;;;12.77;;
24483;SDS011;12643;51.620;7.548;2022-08-19T05:25:04;15.18;;;11.48;;
24483;SDS011;12643;51.620;7.548;2022-08-19T05:27:34;11.77;;;10.65;;
24483;SDS011;12643;51.620;7.548;2022-08-19T05:30:02;14.63;;;13.10;;
24483;SDS011;12643;51.620;7.548;2022-08-19T05:32:31;18.90;;;13.48;;
24483;SDS011;12643;51.620;7.548;2022-08-19T05:35:00;15.25;;;13.00;;
24483;SDS011;12643;51.620;7.548;2022-08-19T05:37:29;15.23;;;13.75;;
24483;SDS011;12643;51.620;7.548;2022-08-19T05:39:57;16.45;;;13.60;;
24483;SDS011;12643;51.620;7.548;2022-08-19T05:42:24;13.88;;;12.32;;
24483;SDS011;12643;51.620;7.548;2022-08-19T05:44:52;13.80;;;11.70;;
24483;SDS011;12643;51.620;7.548;2022-08-19T05:47:21;13.00;;;11.57;;
24483;SDS011;12643;51.620;7.548;2022-08-19T05:49:49;12.70;;;11.00;;
24483;SDS011;12643;51.620;7.548;2022-08-19T05:52:18;12.63;;;11.35;;
24483;SDS011;12643;51.620;7.548;2022-08-19T05:54:46;15.18;;;13.40;;
24483;SDS011;12643;51.620;7.548;2022-08-19T05:57:16;19.75;;;15.30;;
24483;SDS011;12643;51.620;7.548;2022-08-19T05:59:44;17.23;;;15.43;;
24483;SDS011;12643;51.620;7.548;2022-08-19T06:02:13;16.73;;;14.57;;
24483;SDS011;12643;51.620;7.548;2022-08-19T06:04:41;16.95;;;14.65;;
24483;SDS011;12643;51.620;7.548;2022-08-19T06:07:09;17.63;;;14.45;;
24483;SDS011;12643;51.620;7.548;2022-08-19T06:09:38;23.13;;;18.60;;
24483;SDS011;12643;51.620;7.548;2022-08-19T06:12:07;18.60;;;15.23;;
24483;SDS011;12643;51.620;7.548;2022-08-19T06:14:35;17.00;;;15.13;;
24483;SDS011;12643;51.620;7.548;2022-08-19T06:17:03;17.80;;;14.88;;
24483;SDS011;12643;51.620;7.548;2022-08-19T06:19:31;18.65;;;15.15;;
24483;SDS011;12643;51.620;7.548;2022-08-19T06:21:59;35.53;;;21.60;;
24483;SDS011;12643;51.620;7.548;2022-08-19T06:24:28;23.08;;;18.10;;
24483;SDS011;12643;51.620;7.548;2022-08-19T06:34:08;24.88;;;20.70;;
24483;SDS011;12643;51.620;7.548;2022-08-19T06:36:38;20.65;;;18.45;;
24483;SDS011;12643;51.620;7.548;2022-08-19T06:39:10;23.40;;;20.58;;
24483;SDS011;12643;51.620;7.548;2022-08-19T06:41:40;35.38;;;25.77;;
24483;SDS011;12643;51.620;7.548;2022-08-19T06:44:10;32.17;;;23.92;;
24483;SDS011;12643;51.620;7.548;2022-08-19T06:46:39;39.20;;;25.40;;
24483;SDS011;12643;51.620;7.548;2022-08-19T06:49:09;37.55;;;24.42;;
24483;SDS011;12643;51.620;7.548;2022-08-19T06:51:39;35.65;;;25.05;;
24483;SDS011;12643;51.620;7.548;2022-08-19T06:54:09;29.67;;;22.38;;
24483;SDS011;12643;51.620;7.548;2022-08-19T06:56:39;24.23;;;20.88;;
24483;SDS011;12643;51.620;7.548;2022-08-19T06:59:12;23.35;;;19.20;;
24483;SDS011;12643;51.620;7.548;2022-08-19T07:01:41;24.55;;;21.92;;
24483;SDS011;12643;51.620;7.548;2022-08-19T07:04:14;50.55;;;31.58;;
24483;SDS011;12643;51.620;7.548;2022-08-19T07:06:43;40.50;;;30.95;;
24483;SDS011;12643;51.620;7.548;2022-08-19T07:09:12;30.02;;;25.70;;
24483;SDS011;12643;51.620;7.548;2022-08-19T07:11:43;31.52;;;24.98;;
24483;SDS011;12643;51.620;7.548;2022-08-19T07:14:12;32.03;;;26.27;;
24483;SDS011;12643;51.620;7.548;2022-08-19T07:16:43;27.83;;;23.02;;
24483;SDS011;12643;51.620;7.548;2022-08-19T07:19:11;31.65;;;26.08;;
24483;SDS011;12643;51.620;7.548;2022-08-19T07:21:42;30.27;;;24.58;;
24483;SDS011;12643;51.620;7.548;2022-08-19T07:24:10;27.13;;;24.25;;
24483;SDS011;12643;51.620;7.548;2022-08-19T07:26:39;32.30;;;23.90;;
24483;SDS011;12643;51.620;7.548;2022-08-19T07:29:09;32.05;;;25.90;;
24483;SDS011;12643;51.620;7.548;2022-08-19T07:31:38;44.50;;;32.58;;
24483;SDS011;12643;51.620;7.548;2022-08-19T07:34:08;37.70;;;30.05;;
24483;SDS011;12643;51.620;7.548;2022-08-19T07:36:41;34.97;;;26.92;;
24483;SDS011;12643;51.620;7.548;2022-08-19T07:39:18;29.70;;;25.70;;
24483;SDS011;12643;51.620;7.548;2022-08-19T07:42:00;34.53;;;27.02;;
24483;SDS011;12643;51.620;7.548;2022-08-19T07:44:32;35.22;;;28.02;;
24483;SDS011;12643;51.620;7.548;2022-08-19T07:47:01;28.20;;;24.90;;
24483;SDS011;12643;51.620;7.548;2022-08-19T07:49:33;33.80;;;27.17;;
24483;SDS011;12643;51.620;7.548;2022-08-19T07:52:05;28.25;;;25.27;;
24483;SDS011;12643;51.620;7.548;2022-08-19T07:54:37;29.50;;;25.77;;
24483;SDS011;12643;51.620;7.548;2022-08-19T07:57:09;31.63;;;25.10;;
24483;SDS011;12643;51.620;7.548;2022-08-19T07:59:56;26.33;;;23.13;;
24483;SDS011;12643;51.620;7.548;2022-08-19T08:02:25;35.97;;;26.67;;
24483;SDS011;12643;51.620;7.548;2022-08-19T08:04:56;32.88;;;27.15;;
24483;SDS011;12643;51.620;7.548;2022-08-19T08:07:45;30.38;;;25.92;;
24483;SDS011;12643;51.620;7.548;2022-08-19T08:10:34;28.42;;;22.25;;
24483;SDS011;12643;51.620;7.548;2022-08-19T08:13:05;36.33;;;28.48;;
24483;SDS011;12643;51.620;7.548;2022-08-19T08:15:37;33.65;;;24.83;;
24483;SDS011;12643;51.620;7.548;2022-08-19T08:18:06;31.20;;;23.35;;
24483;SDS011;12643;51.620;7.548;2022-08-19T08:20:37;29.75;;;21.52;;
24483;SDS011;12643;51.620;7.548;2022-08-19T08:23:08;30.55;;;23.30;;
24483;SDS011;12643;51.620;7.548;2022-08-19T08:25:52;28.98;;;23.63;;
24483;SDS011;12643;51.620;7.548;2022-08-19T08:28:22;28.63;;;21.83;;
24483;SDS011;12643;51.620;7.548;2022-08-19T08:31:14;23.63;;;20.30;;
24483;SDS011;12643;51.620;7.548;2022-08-19T08:33:57;26.30;;;21.60;;
24483;SDS011;12643;51.620;7.548;2022-08-19T08:36:53;28.50;;;21.85;;
24483;SDS011;12643;51.620;7.548;2022-08-19T08:43:39;30.98;;;24.10;;
24483;SDS011;12643;51.620;7.548;2022-08-19T08:46:49;26.52;;;22.70;;
24483;SDS011;12643;51.620;7.548;2022-08-19T08:49:24;31.75;;;24.30;;
24483;SDS011;12643;51.620;7.548;2022-08-19T08:51:59;28.88;;;21.83;;
24483;SDS011;12643;51.620;7.548;2022-08-19T08:54:32;25.05;;;21.25;;
24483;SDS011;12643;51.620;7.548;2022-08-19T08:57:04;29.92;;;23.48;;
24483;SDS011;12643;51.620;7.548;2022-08-19T08:59:40;24.77;;;21.13;;
24483;SDS011;12643;51.620;7.548;2022-08-19T09:02:09;20.50;;;18.40;;
24483;SDS011;12643;51.620;7.548;2022-08-19T09:04:37;21.95;;;19.63;;
24483;SDS011;12643;51.620;7.548;2022-08-19T09:07:12;22.67;;;18.25;;
24483;SDS011;12643;51.620;7.548;2022-08-19T09:09:49;26.42;;;19.65;;
24483;SDS011;12643;51.620;7.548;2022-08-19T09:12:19;25.52;;;18.55;;
24483;SDS011;12643;51.620;7.548;2022-08-19T09:14:55;19.20;;;14.68;;
24483;SDS011;12643;51.620;7.548;2022-08-19T09:17:27;15.80;;;13.32;;
24483;SDS011;12643;51.620;7.548;2022-08-19T09:20:00;15.85;;;14.20;;
24483;SDS011;12643;51.620;7.548;2022-08-19T09:22:33;14.93;;;12.70;;
24483;SDS011;12643;51.620;7.548;2022-08-19T09:25:07;15.70;;;12.95;;
24483;SDS011;12643;51.620;7.548;2022-08-19T09:27:36;15.52;;;14.05;;
24483;SDS011;12643;51.620;7.548;2022-08-19T09:30:09;11.98;;;10.73;;
24483;SDS011;12643;51.620;7.548;2022-08-19T09:32:57;9.07;;;8.25;;
24483;SDS011;12643;51.620;7.548;2022-08-19T09:35:45;17.40;;;9.48;;
24483;SDS011;12643;51.620;7.548;2022-08-19T09:38:23;12.68;;;11.32;;
24483;SDS011;12643;51.620;7.548;2022-08-19T09:40:52;13.90;;;11.05;;
24483;SDS011;12643;51.620;7.548;2022-08-19T09:43:34;11.32;;;9.93;;
24483;SDS011;12643;51.620;7.548;2022-08-19T09:46:22;11.10;;;10.02;;
24483;SDS011;12643;51.620;7.548;2022-08-19T09:48:53;14.35;;;12.85;;
24483;SDS011;12643;51.620;7.548;2022-08-19T09:51:35;19.10;;;15.98;;
24483;SDS011;12643;51.620;7.548;2022-08-19T09:54:04;17.00;;;14.77;;
24483;SDS011;12643;51.620;7.548;2022-08-19T09:56:33;19.77;;;15.93;;
24483;SDS011;12643;51.620;7.548;2022-08-19T09:59:02;14.95;;;11.18;;
24483;SDS011;12643;51.620;7.548;2022-08-19T10:01:32;7.82;;;7.03;;
24483;SDS011;12643;51.620;7.548;2022-08-19T10:04:00;10.88;;;9.82;;
24483;SDS011;12643;51.620;7.548;2022-08-19T10:06:30;11.10;;;9.23;;
24483;SDS011;12643;51.620;7.548;2022-08-19T10:08:59;12.40;;;8.93;;
24483;SDS011;12643;51.620;7.548;2022-08-19T10:11:30;11.27;;;7.60;;
24483;SDS011;12643;51.620;7.548;2022-08-19T10:14:00;7.93;;;6.77;;
24483;SDS011;12643;51.620;7.548;2022-08-19T10:16:28;10.52;;;7.20;;
24483;SDS011;12643;51.620;7.548;2022-08-19T10:18:57;9.02;;;7.63;;
24483;SDS011;12643;51.620;7.548;2022-08-19T10:21:28;7.43;;;6.65;;
24483;SDS011;12643;51.620;7.548;2022-08-19T10:23:58;11.30;;;7.90;;
24483;SDS011;12643;51.620;7.548;2022-08-19T10:26:30;10.45;;;8.57;;
24483;SDS011;12643;51.620;7.548;2022-08-19T10:29:01;10.70;;;8.52;;
24483;SDS011;12643;51.620;7.548;2022-08-19T10:31:33;9.65;;;8.73;;
24483;SDS011;12643;51.620;7.548;2022-08-19T10:34:02;10.75;;;7.80;;
24483;SDS011;12643;51.620;7.548;2022-08-19T10:36:32;12.05;;;9.05;;
24483;SDS011;12643;51.620;7.548;2022-08-19T10:39:03;10.88;;;9.07;;
24483;SDS011;12643;51.620;7.548;2022-08-19T10:41:33;11.70;;;10.50;;
24483;SDS011;12643;51.620;7.548;2022-08-19T10:44:03;12.02;;;10.85;;
24483;SDS011;12643;51.620;7.548;2022-08-19T10:46:34;11.77;;;9.80;;
24483;SDS011;12643;51.620;7.548;2022-08-19T10:49:09;10.50;;;9.50;;
24483;SDS011;12643;51.620;7.548;2022-08-19T10:51:38;9.02;;;8.10;;
24483;SDS011;12643;51.620;7.548;2022-08-19T10:54:25;12.43;;;10.60;;
24483;SDS011;12643;51.620;7.548;2022-08-19T10:57:14;9.50;;;8.50;;
24483;SDS011;12643;51.620;7.548;2022-08-19T10:59:41;9.32;;;7.78;;
24483;SDS011;12643;51.620;7.548;2022-08-19T11:02:11;12.80;;;7.10;;
24483;SDS011;12643;51.620;7.548;2022-08-19T11:04:41;8.85;;;7.95;;
24483;SDS011;12643;51.620;7.548;2022-08-19T11:07:09;16.23;;;11.25;;
24483;SDS011;12643;51.620;7.548;2022-08-19T11:09:38;10.32;;;8.70;;
24483;SDS011;12643;51.620;7.548;2022-08-19T11:12:12;9.77;;;7.85;;
24483;SDS011;12643;51.620;7.548;2022-08-19T11:14:42;12.32;;;10.50;;
24483;SDS011;12643;51.620;7.548;2022-08-19T11:17:10;13.73;;;12.27;;
24483;SDS011;12643;51.620;7.548;2022-08-19T11:19:42;14.07;;;12.77;;
24483;SDS011;12643;51.620;7.548;2022-08-19T11:22:12;12.30;;;11.00;;
24483;SDS011;12643;51.620;7.548;2022-08-19T11:24:41;14.57;;;13.10;;
24483;SDS011;12643;51.620;7.548;2022-08-19T11:27:09;15.63;;;11.50;;
24483;SDS011;12643;51.620;7.548;2022-08-19T11:29:37;14.00;;;12.15;;
24483;SDS011;12643;51.620;7.548;2022-08-19T11:32:08;14.20;;;12.80;;
24483;SDS011;12643;51.620;7.548;2022-08-19T11:34:43;14.45;;;13.15;;
24483;SDS011;12643;51.620;7.548;2022-08-19T11:37:11;16.60;;;11.43;;
24483;SDS011;12643;51.620;7.548;2022-08-19T11:39:39;15.82;;;11.75;;
24483;SDS011;12643;51.620;7.548;2022-08-19T11:42:07;13.07;;;11.70;;
24483;SDS011;12643;51.620;7.548;2022-08-19T11:44:53;18.33;;;14.90;;
24483;SDS011;12643;51.620;7.548;2022-08-19T11:47:27;13.20;;;11.88;;
24483;SDS011;12643;51.620;7.548;2022-08-19T11:49:58;12.05;;;10.95;;
24483;SDS011;12643;51.620;7.548;2022-08-19T11:52:25;16.38;;;10.52;;
24483;SDS011;12643;51.620;7.548;2022-08-19T11:54:55;11.20;;;10.10;;
24483;SDS011;12643;51.620;7.548;2022-08-19T11:57:23;11.52;;;10.30;;
24483;SDS011;12643;51.620;7.548;2022-08-19T11:59:53;9.82;;;8.88;;
24483;SDS011;12643;51.620;7.548;2022-08-19T12:02:21;13.52;;;9.50;;
24483;SDS011;12643;51.620;7.548;2022-08-19T12:04:51;8.55;;;7.80;;
24483;SDS011;12643;51.620;7.548;2022-08-19T12:07:23;10.82;;;9.73;;
24483;SDS011;12643;51.620;7.548;2022-08-19T12:09:51;11.10;;;8.98;;
24483;SDS011;12643;51.620;7.548;2022-08-19T12:12:21;9.65;;;8.57;;
24483;SDS011;12643;51.620;7.548;2022-08-19T12:14:52;12.52;;;9.30;;
24483;SDS011;12643;51.620;7.548;2022-08-19T12:17:24;8.77;;;7.50;;
24483;SDS011;12643;51.620;7.548;2022-08-19T12:19:53;6.85;;;6.13;;
24483;SDS011;12643;51.620;7.548;2022-08-19T12:22:22;6.15;;;5.20;;
24483;SDS011;12643;51.620;7.548;2022-08-19T12:24:52;6.18;;;5.57;;
24483;SDS011;12643;51.620;7.548;2022-08-19T12:27:20;9.75;;;8.40;;
24483;SDS011;12643;51.620;7.548;2022-08-19T12:29:48;15.90;;;11.55;;
24483;SDS011;12643;51.620;7.548;2022-08-19T12:32:16;12.98;;;9.73;;
24483;SDS011;12643;51.620;7.548;2022-08-19T12:34:45;14.95;;;12.05;;
24483;SDS011;12643;51.620;7.548;2022-08-19T12:37:14;12.05;;;10.45;;
24483;SDS011;12643;51.620;7.548;2022-08-19T12:39:44;12.48;;;11.23;;
24483;SDS011;12643;51.620;7.548;2022-08-19T12:42:13;11.47;;;10.23;;
24483;SDS011;12643;51.620;7.548;2022-08-19T12:44:47;9.38;;;8.50;;
24483;SDS011;12643;51.620;7.548;2022-08-19T12:47:17;8.88;;;7.93;;
24483;SDS011;12643;51.620;7.548;2022-08-19T12:49:45;8.68;;;7.70;;
24483;SDS011;12643;51.620;7.548;2022-08-19T12:52:14;9.50;;;7.25;;
24483;SDS011;12643;51.620;7.548;2022-08-19T12:54:47;7.30;;;6.60;;
24483;SDS011;12643;51.620;7.548;2022-08-19T12:57:16;8.10;;;6.13;;
24483;SDS011;12643;51.620;7.548;2022-08-19T12:59:44;9.68;;;8.50;;
24483;SDS011;12643;51.620;7.548;2022-08-19T13:02:11;11.80;;;10.60;;
24483;SDS011;12643;51.620;7.548;2022-08-19T13:04:39;13.27;;;8.10;;
24483;SDS011;12643;51.620;7.548;2022-08-19T13:07:08;9.73;;;8.82;;
24483;SDS011;12643;51.620;7.548;2022-08-19T13:09:36;14.90;;;13.40;;
24483;SDS011;12643;51.620;7.548;2022-08-19T13:12:08;14.30;;;11.90;;
24483;SDS011;12643;51.620;7.548;2022-08-19T13:14:38;14.52;;;11.93;;
24483;SDS011;12643;51.620;7.548;2022-08-19T13:17:07;10.02;;;9.02;;
24483;SDS011;12643;51.620;7.548;2022-08-19T13:19:37;10.50;;;9.43;;
24483;SDS011;12643;51.620;7.548;2022-08-19T13:22:05;11.40;;;10.15;;
24483;SDS011;12643;51.620;7.548;2022-08-19T13:24:35;9.98;;;9.05;;
24483;SDS011;12643;51.620;7.548;2022-08-19T13:27:10;10.77;;;8.02;;
24483;SDS011;12643;51.620;7.548;2022-08-19T13:29:41;9.55;;;8.63;;
24483;SDS011;12643;51.620;7.548;2022-08-19T13:32:27;9.27;;;8.35;;
24483;SDS011;12643;51.620;7.548;2022-08-19T13:35:13;8.52;;;7.32;;
24483;SDS011;12643;51.620;7.548;2022-08-19T13:37:43;8.50;;;6.78;;
24483;SDS011;12643;51.620;7.548;2022-08-19T13:40:13;8.15;;;7.35;;
24483;SDS011;12643;51.620;7.548;2022-08-19T13:42:45;8.63;;;7.78;;
24483;SDS011;12643;51.620;7.548;2022-08-19T13:45:18;8.77;;;7.80;;
24483;SDS011;12643;51.620;7.548;2022-08-19T13:47:56;9.18;;;8.35;;
24483;SDS011;12643;51.620;7.548;2022-08-19T13:50:26;9.85;;;8.85;;
24483;SDS011;12643;51.620;7.548;2022-08-19T13:53:00;9.25;;;8.35;;
24483;SDS011;12643;51.620;7.548;2022-08-19T13:55:30;11.98;;;7.70;;
24483;SDS011;12643;51.620;7.548;2022-08-19T13:58:10;7.55;;;6.85;;
24483;SDS011;12643;51.620;7.548;2022-08-19T14:00:43;10.65;;;7.05;;
24483;SDS011;12643;51.620;7.548;2022-08-19T14:03:14;11.07;;;9.98;;
24483;SDS011;12643;51.620;7.548;2022-08-19T14:05:42;14.60;;;10.60;;
24483;SDS011;12643;51.620;7.548;2022-08-19T14:08:11;13.07;;;11.77;;
24483;SDS011;12643;51.620;7.548;2022-08-19T14:10:39;12.18;;;10.88;;
24483;SDS011;12643;51.620;7.548;2022-08-19T14:13:12;10.63;;;9.63;;
24483;SDS011;12643;51.620;7.548;2022-08-19T14:15:44;11.10;;;9.50;;
24483;SDS011;12643;51.620;7.548;2022-08-19T14:18:13;12.05;;;10.85;;
24483;SDS011;12643;51.620;7.548;2022-08-19T14:20:50;9.48;;;8.57;;
24483;SDS011;12643;51.620;7.548;2022-08-19T14:23:24;11.23;;;10.23;;
24483;SDS011;12643;51.620;7.548;2022-08-19T14:26:02;10.50;;;9.05;;
24483;SDS011;12643;51.620;7.548;2022-08-19T14:28:39;8.18;;;7.45;;
24483;SDS011;12643;51.620;7.548;2022-08-19T14:31:08;8.80;;;8.05;;
24483;SDS011;12643;51.620;7.548;2022-08-19T14:33:39;10.10;;;9.13;;
24483;SDS011;12643;51.620;7.548;2022-08-19T14:36:07;7.90;;;7.20;;
24483;SDS011;12643;51.620;7.548;2022-08-19T14:38:36;10.38;;;8.32;;
24483;SDS011;12643;51.620;7.548;2022-08-19T14:41:06;9.52;;;8.63;;
24483;SDS011;12643;51.620;7.548;2022-08-19T14:43:40;8.38;;;7.10;;
24483;SDS011;12643;51.620;7.548;2022-08-19T14:46:11;9.57;;;8.68;;
24483;SDS011;12643;51.620;7.548;2022-08-19T14:48:48;8.52;;;7.60;;
24483;SDS011;12643;51.620;7.548;2022-08-19T14:51:16;9.32;;;7.30;;
24483;SDS011;12643;51.620;7.548;2022-08-19T14:53:47;7.30;;;6.47;;
24483;SDS011;12643;51.620;7.548;2022-08-19T14:56:17;8.43;;;7.10;;
24483;SDS011;12643;51.620;7.548;2022-08-19T14:59:00;8.80;;;6.93;;
24483;SDS011;12643;51.620;7.548;2022-08-19T15:01:29;7.28;;;5.93;;
24483;SDS011;12643;51.620;7.548;2022-08-19T15:03:57;9.45;;;7.13;;
24483;SDS011;12643;51.620;7.548;2022-08-19T15:06:26;7.63;;;6.50;;
24483;SDS011;12643;51.620;7.548;2022-08-19T15:08:54;6.65;;;5.95;;
24483;SDS011;12643;51.620;7.548;2022-08-19T15:11:24;6.15;;;5.10;;
24483;SDS011;12643;51.620;7.548;2022-08-19T15:13:57;8.02;;;6.45;;
24483;SDS011;12643;51.620;7.548;2022-08-19T15:16:30;6.78;;;6.07;;
24483;SDS011;12643;51.620;7.548;2022-08-19T15:18:58;8.40;;;6.20;;
24483;SDS011;12643;51.620;7.548;2022-08-19T15:21:28;7.25;;;5.38;;
24483;SDS011;12643;51.620;7.548;2022-08-19T15:26:26;6.53;;;5.78;;
24483;SDS011;12643;51.620;7.548;2022-08-19T15:29:03;6.22;;;5.13;;
24483;SDS011;12643;51.620;7.548;2022-08-19T15:31:32;7.38;;;5.10;;